Gila Bend, Arizona
Current Conditions -  °F | °C
As of 4:56 AM on Friday 19 Dec 2014 (Local Time) from KGXF Reporting Station
Clear Clear  
Wind Chill:   Ceiling: Unl
Heat Index:   Visibility: 9mi
Dew Point:   Wind: 3mph
Humidity: 97%   Direction: 120°ESE
Pressure: 30.19"   Gusts: NA
Location:  32.95°N, 112.72°W
Report Text: KGXF 191156Z AUTO 12003KT 9SM CLR 06/05 A3019 RMK AO2 SLP221 T00550050 10089 20055 50002
Loading
Personal Weather Stations






























Interactive Weather Map New forecast layout! Learn more

10-Day Weather Forecast

Advertisements
Track Severe Weather on mobile